Terminal Aerodrome Forecast
Issued by NWS Sioux Falls, SD

Home | Current Version | Previous Version | Graphics & Text | Print | Product List | Glossary Off
Versions: 1 2 3 4 5 6 7 8 9 10 11 12 13 14 15 16 17 18 19 20 21 22

239
FTUS43 KFSD 080532
TAFFSD
TAF
KFSD 080532Z 0806/0906 34025G35KT 5SM -SN BLSN BKN025 OVC035
     FM080800 34026G37KT 5SM BLSN OVC025
     FM081400 33025G37KT P6SM OVC025
     FM082300 33017G23KT P6SM BKN025=

USA.gov is the U.S. government's official web portal to all federal, state and local government web resources and services.